Time;durP1;ratioP1;P1;durP2;ratioP2;P2;SDS_P1;SDS_P2;PMS_P1;PMS_P2;Temp;Humidity;BMP_temperature;BMP_pressure;BME280_temperature;BME280_humidity;BME280_pressure;Samples;Min_cycle;Max_cycle;Signal;HPM_P1;HPM_P2
2022/03/20 00:01:54;;;;;;;23.00;20.40;;;6.40;75.40;;;;;;6195436;23;20512;-86
2022/03/20 00:04:21;;;;;;;24.20;19.80;;;6.30;75.00;;;;;;6186539;23;20457;-85
2022/03/20 00:06:49;;;;;;;23.00;20.50;;;6.30;75.00;;;;;;6186525;23;20433;-85
2022/03/20 00:09:16;;;;;;;23.60;20.97;;;6.30;75.30;;;;;;6191850;23;20417;-85
2022/03/20 00:11:43;;;;;;;23.53;21.13;;;6.40;74.90;;;;;;6207293;23;20405;-85
2022/03/20 00:14:09;;;;;;;23.40;21.00;;;6.40;74.70;;;;;;6187344;23;20413;-84
2022/03/20 00:16:36;;;;;;;26.80;22.13;;;6.30;74.60;;;;;;6186858;23;20413;-85
2022/03/20 00:19:05;;;;;;;22.97;20.40;;;6.30;74.30;;;;;;6213227;23;20445;-84
2022/03/20 00:21:32;;;;;;;25.73;20.03;;;6.30;74.30;;;;;;6195866;23;20528;-85
2022/03/20 00:24:01;;;;;;;24.10;20.93;;;6.30;73.90;;;;;;6185249;23;20418;-85
2022/03/20 00:26:28;;;;;;;24.90;20.83;;;6.30;74.00;;;;;;6186146;23;20413;-85
2022/03/20 00:28:56;;;;;;;23.50;21.03;;;6.30;74.10;;;;;;6186261;23;20476;-86
2022/03/20 00:31:23;;;;;;;28.80;25.33;;;6.30;74.50;;;;;;6187213;23;20389;-86
2022/03/20 00:33:50;;;;;;;26.93;21.27;;;6.30;74.70;;;;;;6186449;23;20428;-86
2022/03/20 00:36:17;;;;;;;24.47;20.70;;;6.20;75.00;;;;;;6187403;23;20904;-86
2022/03/20 00:38:43;;;;;;;31.73;21.70;;;6.30;75.30;;;;;;6198920;23;20430;-84
2022/03/20 00:41:12;;;;;;;24.80;22.10;;;6.30;75.20;;;;;;6202282;23;20436;-84
2022/03/20 00:43:38;;;;;;;23.20;20.20;;;6.30;75.50;;;;;;6190210;23;20429;-85
2022/03/20 00:46:05;;;;;;;23.20;20.90;;;6.30;75.50;;;;;;6188419;23;20410;-85
2022/03/20 00:48:32;;;;;;;23.60;20.87;;;6.30;75.20;;;;;;6199106;23;20406;-85
2022/03/20 00:51:03;;;;;;;26.83;22.67;;;6.20;75.70;;;;;;6211420;23;20374;-85
2022/03/20 00:53:32;;;;;;;27.23;21.87;;;6.20;76.20;;;;;;6212364;23;20405;-84
2022/03/20 00:55:59;;;;;;;24.87;21.70;;;6.20;76.40;;;;;;6209100;23;20465;-85
2022/03/20 00:58:27;;;;;;;23.57;21.07;;;6.20;76.60;;;;;;6192110;23;20424;-85
2022/03/20 01:00:54;;;;;;;25.80;22.87;;;6.20;76.70;;;;;;6193795;23;20446;-85
2022/03/20 01:03:20;;;;;;;24.90;21.53;;;6.30;76.40;;;;;;6188658;23;20436;-85
2022/03/20 01:05:47;;;;;;;28.47;22.00;;;6.30;76.30;;;;;;6186423;23;20757;-85
2022/03/20 01:08:14;;;;;;;25.70;23.03;;;6.20;76.50;;;;;;6195060;23;20420;-84
2022/03/20 01:10:41;;;;;;;25.73;22.47;;;6.20;76.80;;;;;;6202437;23;20430;-84
2022/03/20 01:13:08;;;;;;;23.47;20.90;;;6.20;77.20;;;;;;6188140;23;20401;-86
2022/03/20 01:15:36;;;;;;;28.97;21.87;;;6.20;77.10;;;;;;6186666;23;20739;-85
2022/03/20 01:18:03;;;;;;;26.00;20.53;;;6.30;77.00;;;;;;6195130;23;20407;-85
2022/03/20 01:20:30;;;;;;;22.37;19.53;;;6.30;76.30;;;;;;6209634;23;20440;-84
2022/03/20 01:22:57;;;;;;;24.83;19.93;;;6.30;75.20;;;;;;6203254;23;20402;-84
2022/03/20 01:25:24;;;;;;;23.67;19.90;;;6.40;74.00;;;;;;6191794;23;20393;-85
2022/03/20 01:27:51;;;;;;;21.67;19.30;;;6.30;73.10;;;;;;6201888;23;20394;-84
2022/03/20 01:30:18;;;;;;;21.50;19.20;;;6.30;72.70;;;;;;6188427;23;20416;-84
2022/03/20 01:32:46;;;;;;;19.83;17.83;;;6.30;72.50;;;;;;6186490;23;20402;-85
2022/03/20 01:35:13;;;;;;;23.83;20.53;;;6.30;71.90;;;;;;6186537;23;20406;-85
2022/03/20 01:37:41;;;;;;;21.30;18.80;;;6.30;71.30;;;;;;6186455;23;20904;-84
2022/03/20 01:40:09;;;;;;;24.27;18.57;;;6.30;70.90;;;;;;6186483;23;20437;-85
2022/03/20 01:42:38;;;;;;;21.80;18.50;;;6.30;70.10;;;;;;6199864;23;20448;-86
2022/03/20 01:45:13;;;;;;;20.70;18.57;;;6.20;70.10;;;;;;6193594;23;20398;-86
2022/03/20 01:47:39;;;;;;;22.40;18.33;;;6.20;70.00;;;;;;6200415;23;20384;-85
2022/03/20 01:50:08;;;;;;;23.13;16.80;;;6.30;69.60;;;;;;6211830;23;20492;-83
2022/03/20 01:52:35;;;;;;;20.30;18.20;;;6.30;69.70;;;;;;6203623;23;20409;-86
2022/03/20 01:55:02;;;;;;;23.50;19.97;;;6.30;69.20;;;;;;6209355;23;20409;-87
2022/03/20 01:57:36;;;;;;;22.10;18.83;;;6.30;69.00;;;;;;6189893;23;20411;-87
2022/03/20 02:00:06;;;;;;;22.03;19.07;;;6.30;69.00;;;;;;6193057;23;20433;-86
2022/03/20 02:02:33;;;;;;;21.87;18.43;;;6.30;68.60;;;;;;6200723;23;20421;-86
2022/03/20 02:05:00;;;;;;;22.93;19.87;;;6.30;68.70;;;;;;6211905;23;20408;-86
2022/03/20 02:07:28;;;;;;;21.93;18.70;;;6.30;68.90;;;;;;6204910;23;20422;-85
2022/03/20 02:09:57;;;;;;;23.30;19.27;;;6.30;68.90;;;;;;6209141;23;20421;-85
2022/03/20 02:12:24;;;;;;;21.03;17.03;;;6.30;68.60;;;;;;6191817;23;21169;-80
2022/03/20 02:14:51;;;;;;;22.60;20.17;;;6.30;68.80;;;;;;6192629;23;20407;-79
2022/03/20 02:17:18;;;;;;;21.97;19.57;;;6.30;70.20;;;;;;6193171;23;20413;-83
2022/03/20 02:19:46;;;;;;;21.33;19.03;;;6.40;69.30;;;;;;6187773;23;20449;-85
2022/03/20 02:22:14;;;;;;;22.60;20.20;;;6.30;68.70;;;;;;6184941;23;20495;-86
2022/03/20 02:24:44;;;;;;;19.93;17.83;;;6.30;68.40;;;;;;6185561;23;20404;-86
2022/03/20 02:27:14;;;;;;;23.30;18.97;;;6.20;68.60;;;;;;6188129;23;20397;-86
2022/03/20 02:29:42;;;;;;;25.30;19.13;;;6.20;69.70;;;;;;6209603;23;20441;-84
2022/03/20 02:32:12;;;;;;;22.47;20.00;;;6.20;70.30;;;;;;6188775;23;20900;-85
2022/03/20 02:34:39;;;;;;;22.77;19.90;;;6.10;70.70;;;;;;6214310;23;20425;-84
2022/03/20 02:37:08;;;;;;;20.40;18.13;;;6.10;70.70;;;;;;6215397;23;20386;-83
2022/03/20 02:39:36;;;;;;;23.90;19.60;;;6.10;70.70;;;;;;6202983;23;20428;-84
2022/03/20 02:42:06;;;;;;;21.00;17.73;;;6.00;70.90;;;;;;6210366;23;20452;-84
2022/03/20 02:44:55;;;;;;;22.67;20.23;;;6.00;71.30;;;;;;6192241;23;20410;-84
2022/03/20 02:47:23;;;;;;;19.43;17.27;;;6.00;71.80;;;;;;6201680;23;20382;-85
2022/03/20 02:49:55;;;;;;;23.50;18.90;;;6.00;72.30;;;;;;6188673;23;20838;-85
2022/03/20 02:52:28;;;;;;;24.13;21.60;;;6.00;72.10;;;;;;6189158;23;20732;-85
2022/03/20 02:55:01;;;;;;;22.27;19.97;;;5.90;72.10;;;;;;6188322;23;20386;-85
2022/03/20 02:57:29;;;;;;;21.47;18.73;;;5.90;72.30;;;;;;6189484;23;20440;-85
2022/03/20 03:00:00;;;;;;;21.40;18.10;;;5.90;72.80;;;;;;6196925;23;20425;-86
2022/03/20 03:02:30;;;;;;;25.00;19.50;;;5.90;72.50;;;;;;6199320;23;20464;-85
2022/03/20 03:04:58;;;;;;;23.60;19.90;;;5.90;72.70;;;;;;6207785;23;20469;-84
2022/03/20 03:07:25;;;;;;;20.50;18.30;;;5.80;71.80;;;;;;6188909;23;20428;-85
2022/03/20 03:12:46;;;;;;;23.87;20.40;;;5.80;71.90;;;;;;6116750;23;20428;-85
2022/03/20 03:15:21;;;;;;;24.00;19.70;;;5.80;72.10;;;;;;6197550;23;20397;-84
2022/03/20 03:17:49;;;;;;;21.63;19.20;;;5.80;72.40;;;;;;6200789;23;20424;-85
2022/03/20 03:20:17;;;;;;;25.10;18.70;;;5.80;72.30;;;;;;6197299;23;20421;-85
2022/03/20 03:22:43;;;;;;;25.57;21.70;;;5.90;72.50;;;;;;6186397;23;20472;-85
2022/03/20 03:25:11;;;;;;;22.93;17.90;;;5.90;72.50;;;;;;6202467;23;20409;-85
2022/03/20 03:27:38;;;;;;;24.60;16.87;;;5.90;71.80;;;;;;6192703;23;20416;-85
2022/03/20 03:30:07;;;;;;;25.27;19.87;;;5.80;72.30;;;;;;6199420;23;20413;-84
2022/03/20 03:32:33;;;;;;;24.13;20.10;;;5.80;72.90;;;;;;6195112;23;20412;-85
2022/03/20 03:37:45;;;;;;;25.43;19.57;;;5.80;74.20;;;;;;6190584;23;20420;-84
2022/03/20 03:40:12;;;;;;;29.23;20.13;;;5.80;74.70;;;;;;6205073;23;20439;-85
2022/03/20 03:42:39;;;;;;;21.57;19.27;;;5.80;74.90;;;;;;6196755;23;20449;-84
2022/03/20 03:45:09;;;;;;;24.43;19.10;;;5.80;75.30;;;;;;6187286;23;20436;-84
2022/03/20 03:47:35;;;;;;;26.27;20.23;;;5.80;75.40;;;;;;6202777;23;20421;-83
2022/03/20 03:50:02;;;;;;;19.80;17.20;;;5.70;75.60;;;;;;6213182;23;20895;-83
2022/03/20 03:52:29;;;;;;;25.63;20.70;;;5.80;75.80;;;;;;6200573;23;20410;-85
2022/03/20 03:54:56;;;;;;;22.77;20.13;;;5.80;76.40;;;;;;6188508;23;20459;-85
2022/03/20 03:57:23;;;;;;;25.53;20.37;;;5.90;76.40;;;;;;6192464;23;20394;-85
2022/03/20 03:59:49;;;;;;;23.30;20.13;;;5.90;75.90;;;;;;6205125;23;20409;-83
2022/03/20 04:02:17;;;;;;;22.97;19.40;;;6.00;76.00;;;;;;6213297;23;20484;-84
2022/03/20 04:04:46;;;;;;;23.03;20.33;;;6.00;76.00;;;;;;6200499;23;20396;-84
2022/03/20 04:07:16;;;;;;;23.10;20.60;;;6.00;76.90;;;;;;6213151;23;20397;-85
2022/03/20 04:09:42;;;;;;;25.60;21.47;;;5.90;77.40;;;;;;6207599;23;20414;-85
2022/03/20 04:12:10;;;;;;;23.90;20.20;;;5.90;78.10;;;;;;6190502;23;20739;-85
2022/03/20 04:14:37;;;;;;;25.10;21.27;;;5.90;78.50;;;;;;6187273;23;20397;-85
2022/03/20 04:17:05;;;;;;;24.10;19.37;;;5.90;78.80;;;;;;6201707;23;20472;-85
2022/03/20 04:19:33;;;;;;;23.30;20.17;;;5.90;78.60;;;;;;6193540;23;20437;-85
2022/03/20 04:22:00;;;;;;;28.03;21.60;;;5.90;78.00;;;;;;6189998;23;20471;-86
2022/03/20 04:24:28;;;;;;;26.17;20.63;;;6.00;76.90;;;;;;6209783;23;20477;-85
2022/03/20 04:26:58;;;;;;;26.70;22.17;;;5.90;76.40;;;;;;6209637;23;20763;-86
2022/03/20 04:29:27;;;;;;;23.37;20.80;;;5.90;77.10;;;;;;6195880;23;20437;-86
2022/03/20 04:31:54;;;;;;;25.60;21.37;;;5.80;77.20;;;;;;6201546;23;20409;-84
2022/03/20 04:34:23;;;;;;;26.30;21.87;;;5.80;77.70;;;;;;6186607;23;20888;-84
2022/03/20 04:36:52;;;;;;;31.90;22.10;;;5.80;77.60;;;;;;6191845;23;21051;-85
2022/03/20 04:39:18;;;;;;;24.40;20.27;;;5.80;77.70;;;;;;6184383;23;20503;-84
2022/03/20 04:41:46;;;;;;;25.00;20.10;;;5.80;78.00;;;;;;6198212;23;20835;-84
2022/03/20 04:44:13;;;;;;;23.80;21.27;;;5.80;77.60;;;;;;6187171;23;20417;-84
2022/03/20 04:46:40;;;;;;;26.57;21.57;;;5.90;77.30;;;;;;6208306;23;20393;-83
2022/03/20 05:00:07;;;;;;;31.03;24.00;;;6.10;75.90;;;;;;6185397;23;20413;-85
2022/03/20 05:02:35;;;;;;;23.70;20.47;;;6.10;75.70;;;;;;6185321;23;20442;-84
2022/03/20 05:05:02;;;;;;;26.70;22.40;;;6.20;75.50;;;;;;6186203;23;20955;-85
2022/03/20 05:07:30;;;;;;;24.93;20.53;;;6.20;75.60;;;;;;6185461;23;20409;-85
2022/03/20 05:15:30;;;;;;;28.10;21.43;;;6.20;77.00;;;;;;6191732;23;20376;-85
2022/03/20 05:17:56;;;;;;;26.10;23.23;;;6.20;76.40;;;;;;6185616;23;20400;-85
2022/03/20 05:20:25;;;;;;;28.70;21.40;;;6.20;76.00;;;;;;6198084;23;20472;-85
2022/03/20 05:22:53;;;;;;;29.33;23.47;;;6.20;76.10;;;;;;6187355;23;20449;-85
2022/03/20 05:25:20;;;;;;;25.60;22.53;;;6.30;76.40;;;;;;6202714;23;20402;-85
2022/03/20 05:27:47;;;;;;;24.93;21.93;;;6.30;76.20;;;;;;6196625;23;20401;-85
2022/03/20 05:30:14;;;;;;;27.93;23.07;;;6.30;76.20;;;;;;6184996;23;20433;-85
2022/03/20 05:32:40;;;;;;;27.07;20.70;;;6.30;76.30;;;;;;6185630;23;20401;-85
2022/03/20 05:35:09;;;;;;;30.43;24.50;;;6.30;76.20;;;;;;6206887;23;20408;-85
2022/03/20 05:37:36;;;;;;;27.20;24.27;;;6.40;76.30;;;;;;6202592;23;20406;-85
2022/03/20 05:40:06;;;;;;;28.07;22.97;;;6.40;76.60;;;;;;6189242;23;20437;-85
2022/03/20 05:42:32;;;;;;;30.83;24.50;;;6.40;76.50;;;;;;6206752;23;20456;-85
2022/03/20 05:45:00;;;;;;;29.80;23.47;;;6.30;76.40;;;;;;6188947;23;20406;-85
2022/03/20 05:47:30;;;;;;;27.80;24.60;;;6.30;76.60;;;;;;6185541;23;20409;-84
2022/03/20 05:49:57;;;;;;;29.47;23.93;;;6.30;76.60;;;;;;6186672;23;20438;-85
2022/03/20 05:52:24;;;;;;;28.70;25.63;;;6.40;76.80;;;;;;6199480;23;20770;-84
2022/03/20 05:54:50;;;;;;;26.87;22.30;;;6.50;76.60;;;;;;6194897;23;20398;-85
2022/03/20 06:00:05;;;;;;;30.90;24.90;;;6.80;76.20;;;;;;6185758;23;20764;-85
2022/03/20 06:02:32;;;;;;;30.80;25.50;;;6.90;74.80;;;;;;6184607;23;20453;-86
2022/03/20 06:04:58;;;;;;;29.93;23.90;;;6.90;74.70;;;;;;6187421;23;20406;-84
2022/03/20 06:07:25;;;;;;;26.40;23.57;;;6.90;75.10;;;;;;6187951;23;20406;-85
2022/03/20 06:09:52;;;;;;;29.83;25.00;;;6.90;75.20;;;;;;6196778;23;20421;-84
2022/03/20 06:12:20;;;;;;;29.27;24.53;;;6.90;75.40;;;;;;6207114;23;20406;-85
2022/03/20 06:14:48;;;;;;;29.53;24.90;;;6.90;75.20;;;;;;6211414;23;20411;-84
2022/03/20 06:17:15;;;;;;;28.43;24.50;;;7.00;75.10;;;;;;6210872;23;20444;-85
2022/03/20 06:19:44;;;;;;;28.43;24.00;;;7.10;75.20;;;;;;6203312;23;20438;-85
2022/03/20 06:22:11;;;;;;;33.77;27.60;;;7.30;74.60;;;;;;6208908;23;20410;-85
2022/03/20 06:24:38;;;;;;;31.43;25.80;;;7.50;73.70;;;;;;6200345;23;20481;-86
2022/03/20 06:27:05;;;;;;;34.13;25.97;;;7.60;73.50;;;;;;6193744;23;20417;-85
2022/03/20 06:29:33;;;;;;;30.23;26.37;;;7.50;73.30;;;;;;6205086;23;20418;-84
2022/03/20 06:31:59;;;;;;;31.40;25.33;;;7.50;73.10;;;;;;6203409;23;20422;-85
2022/03/20 06:34:27;;;;;;;28.63;24.63;;;7.60;73.20;;;;;;6204317;23;20921;-85
2022/03/20 06:36:57;;;;;;;35.00;28.27;;;7.60;73.30;;;;;;6189405;23;20437;-85
2022/03/20 06:39:24;;;;;;;32.87;25.13;;;7.70;73.20;;;;;;6188575;23;20429;-85
2022/03/20 06:41:51;;;;;;;30.57;25.53;;;7.80;72.40;;;;;;6197974;23;20413;-85
2022/03/20 06:44:18;;;;;;;33.57;27.10;;;7.90;72.60;;;;;;6208151;23;20425;-84
2022/03/20 06:46:46;;;;;;;31.10;25.00;;;8.00;72.00;;;;;;6212004;23;20473;-85
2022/03/20 06:49:13;;;;;;;31.27;25.70;;;8.10;71.80;;;;;;6201188;23;20956;-84
2022/03/20 06:51:40;;;;;;;28.90;24.73;;;8.20;71.90;;;;;;6191766;23;20409;-85
2022/03/20 06:54:07;;;;;;;31.77;26.40;;;8.40;71.40;;;;;;6193737;23;20469;-85
2022/03/20 06:56:33;;;;;;;29.70;26.20;;;8.50;70.90;;;;;;6189252;23;20401;-85
2022/03/20 06:59:00;;;;;;;30.17;26.77;;;8.60;71.10;;;;;;6190229;23;20438;-85
2022/03/20 07:01:28;;;;;;;29.07;25.03;;;8.60;69.60;;;;;;6189905;23;20406;-86
2022/03/20 07:03:56;;;;;;;29.07;24.93;;;8.50;69.50;;;;;;6189032;23;20437;-84
2022/03/20 07:06:26;;;;;;;29.10;26.10;;;8.40;69.60;;;;;;6205783;23;20438;-85
2022/03/20 07:08:58;;;;;;;29.50;26.27;;;8.30;70.40;;;;;;6194198;23;20513;-86
2022/03/20 07:11:25;;;;;;;29.80;26.10;;;8.30;70.40;;;;;;6197971;23;20514;-86
2022/03/20 07:13:53;;;;;;;30.13;26.03;;;8.30;70.60;;;;;;6202646;23;20465;-86
2022/03/20 07:16:21;;;;;;;29.47;26.37;;;8.40;70.70;;;;;;6183412;23;20449;-80
2022/03/20 07:18:48;;;;;;;32.30;25.37;;;8.50;71.70;;;;;;6192155;23;20402;-82
2022/03/20 07:21:18;;;;;;;30.27;24.77;;;8.50;70.10;;;;;;6190576;23;20424;-82
2022/03/20 07:23:45;;;;;;;30.80;25.93;;;8.60;69.60;;;;;;6188973;23;20870;-81
2022/03/20 07:31:41;;;;;;;30.53;26.03;;;8.60;69.40;;;;;;6186308;23;20467;-82
2022/03/20 07:34:08;;;;;;;34.20;27.23;;;8.60;69.10;;;;;;6186744;23;20422;-80
2022/03/20 07:36:36;;;;;;;31.80;27.40;;;8.60;69.60;;;;;;6186756;23;20797;-83
2022/03/20 07:39:03;;;;;;;29.10;26.00;;;8.80;69.70;;;;;;6197172;23;20411;-83
2022/03/20 07:41:30;;;;;;;28.63;25.30;;;9.10;69.20;;;;;;6191415;23;20410;-83
2022/03/20 07:43:57;;;;;;;31.13;26.20;;;9.50;68.20;;;;;;6193943;23;20446;-80
2022/03/20 07:46:24;;;;;;;28.47;24.83;;;9.90;66.50;;;;;;6203629;23;20791;-83
2022/03/20 07:48:51;;;;;;;38.40;29.40;;;10.10;63.90;;;;;;6197853;23;20394;-81
2022/03/20 07:51:20;;;;;;;32.00;28.10;;;10.20;63.90;;;;;;6196728;23;20409;-82
2022/03/20 07:53:50;;;;;;;31.90;27.93;;;10.50;63.30;;;;;;6202751;23;20469;-83
2022/03/20 07:56:18;;;;;;;29.23;26.13;;;10.80;62.80;;;;;;6194044;23;20433;-84
2022/03/20 07:58:45;;;;;;;32.10;27.63;;;11.00;62.20;;;;;;6202039;23;20479;-82
2022/03/20 08:01:12;;;;;;;32.67;28.40;;;11.30;61.30;;;;;;6199024;23;20410;-84
2022/03/20 08:03:40;;;;;;;30.60;27.30;;;11.60;60.00;;;;;;6197622;23;20469;-82
2022/03/20 08:06:07;;;;;;;31.63;26.93;;;11.80;59.30;;;;;;6204931;23;20410;-84
2022/03/20 08:08:35;;;;;;;29.40;26.30;;;11.90;59.00;;;;;;6191634;23;20413;-82
2022/03/20 08:11:03;;;;;;;31.07;27.80;;;12.40;58.90;;;;;;6186088;23;20417;-82
2022/03/20 08:13:31;;;;;;;28.63;25.63;;;12.80;57.00;;;;;;6185817;23;20402;-82
2022/03/20 08:15:57;;;;;;;29.60;26.60;;;13.20;56.50;;;;;;6184473;23;20754;-81
2022/03/20 08:18:24;;;;;;;31.87;28.60;;;13.40;55.50;;;;;;6185915;23;20414;-84
2022/03/20 08:20:51;;;;;;;30.53;27.37;;;13.40;55.10;;;;;;6185634;23;20415;-84
2022/03/20 08:23:17;;;;;;;31.27;28.20;;;13.60;55.20;;;;;;6185305;23;20440;-85
2022/03/20 08:25:44;;;;;;;29.90;26.43;;;13.70;54.30;;;;;;6189039;23;20433;-84
2022/03/20 08:28:12;;;;;;;30.60;27.30;;;13.60;54.90;;;;;;6190021;23;20501;-85
2022/03/20 08:30:40;;;;;;;31.50;28.37;;;13.50;54.70;;;;;;6187153;23;20407;-85
2022/03/20 08:33:06;;;;;;;29.40;26.40;;;13.50;54.80;;;;;;6186177;23;20464;-85
2022/03/20 08:35:33;;;;;;;30.03;27.10;;;13.60;55.10;;;;;;6185041;23;20418;-84
2022/03/20 08:38:00;;;;;;;31.60;28.30;;;14.00;54.30;;;;;;6187188;23;20429;-85
2022/03/20 08:40:27;;;;;;;31.70;28.40;;;14.40;53.90;;;;;;6186548;23;20411;-85
2022/03/20 08:42:55;;;;;;;32.50;29.10;;;14.90;53.30;;;;;;6190724;23;20390;-84
2022/03/20 08:45:26;;;;;;;31.47;28.23;;;15.30;52.40;;;;;;6196569;23;20768;-86
2022/03/20 08:47:53;;;;;;;30.93;27.67;;;15.70;51.30;;;;;;6187017;23;20501;-84
2022/03/20 08:50:20;;;;;;;30.97;27.97;;;15.80;50.90;;;;;;6184923;23;20885;-84
2022/03/20 08:52:48;;;;;;;33.30;29.90;;;15.90;50.20;;;;;;6185200;23;20504;-86
2022/03/20 08:55:16;;;;;;;31.53;28.43;;;16.30;50.20;;;;;;6185641;23;20402;-84
2022/03/20 08:57:46;;;;;;;31.67;28.47;;;16.40;49.50;;;;;;6185437;23;20430;-85
2022/03/20 09:00:15;;;;;;;32.07;28.73;;;16.30;49.70;;;;;;6184520;23;20484;-83
2022/03/20 09:02:45;;;;;;;30.17;27.20;;;16.40;49.70;;;;;;6185712;23;20415;-83
2022/03/20 09:05:12;;;;;;;32.53;28.93;;;16.60;49.60;;;;;;6185239;23;20464;-84
2022/03/20 09:07:40;;;;;;;33.07;29.57;;;17.10;48.70;;;;;;6184601;23;20818;-82
2022/03/20 09:10:08;;;;;;;32.50;29.30;;;17.20;48.40;;;;;;6190066;23;20409;-83
2022/03/20 09:12:35;;;;;;;33.43;30.10;;;17.60;48.20;;;;;;6193231;23;20449;-82
2022/03/20 09:15:03;;;;;;;32.60;29.43;;;18.20;47.70;;;;;;6190205;23;20732;-85
2022/03/20 09:20:17;;;;;;;31.23;28.33;;;20.00;45.30;;;;;;6186040;23;20378;-80
2022/03/20 09:22:43;;;;;;;31.97;28.97;;;20.60;43.40;;;;;;6196673;23;20466;-82
2022/03/20 09:25:10;;;;;;;31.70;28.40;;;20.70;43.20;;;;;;6205654;23;20456;-81
2022/03/20 09:27:37;;;;;;;31.93;29.13;;;21.30;42.20;;;;;;6193313;23;20456;-83
2022/03/20 09:30:05;;;;;;;31.93;28.93;;;22.10;41.20;;;;;;6188920;23;20409;-83
2022/03/20 09:32:32;;;;;;;31.30;28.50;;;21.30;41.10;;;;;;6189562;23;20892;-83
2022/03/20 09:34:58;;;;;;;31.53;28.53;;;21.70;41.20;;;;;;6187515;23;20446;-83
2022/03/20 09:37:27;;;;;;;30.83;27.93;;;22.20;40.70;;;;;;6187939;23;20425;-84
2022/03/20 09:39:53;;;;;;;32.70;29.60;;;22.20;40.70;;;;;;6189302;23;20903;-83
2022/03/20 09:42:20;;;;;;;34.00;31.00;;;22.40;39.70;;;;;;6188342;23;20410;-82
2022/03/20 09:44:50;;;;;;;31.53;28.53;;;23.00;39.00;;;;;;6187481;23;20935;-83
2022/03/20 09:47:17;;;;;;;32.57;29.37;;;22.70;38.80;;;;;;6187529;23;20436;-83
2022/03/20 09:49:45;;;;;;;32.60;29.50;;;22.30;39.10;;;;;;6187398;23;20402;-84
2022/03/20 09:52:12;;;;;;;31.53;28.73;;;21.40;39.20;;;;;;6204100;23;20389;-81
2022/03/20 09:54:40;;;;;;;33.80;30.60;;;21.90;40.00;;;;;;6194092;23;20411;-80
2022/03/20 09:57:09;;;;;;;30.93;28.03;;;22.30;39.60;;;;;;6183925;23;20473;-81
2022/03/20 09:59:38;;;;;;;32.40;29.23;;;23.40;40.40;;;;;;6184398;23;20446;-83
2022/03/20 10:02:06;;;;;;;31.90;28.83;;;23.70;38.90;;;;;;6188846;23;20467;-83
2022/03/20 10:04:34;;;;;;;33.37;30.27;;;24.30;37.80;;;;;;6195551;23;20431;-83
2022/03/20 10:07:01;;;;;;;31.57;28.63;;;25.30;36.50;;;;;;6188665;23;20816;-83
2022/03/20 10:09:29;;;;;;;30.60;27.97;;;26.10;35.50;;;;;;6193763;23;20427;-81
2022/03/20 10:11:58;;;;;;;31.80;29.10;;;25.90;34.30;;;;;;6205272;23;20395;-81
2022/03/20 10:14:29;;;;;;;31.40;28.63;;;24.80;35.10;;;;;;6201073;23;20404;-83
2022/03/20 10:17:09;;;;;;;30.87;28.10;;;25.90;36.10;;;;;;6197943;23;20474;-82
2022/03/20 10:19:36;;;;;;;31.50;28.80;;;25.70;34.50;;;;;;6189214;23;20429;-82
2022/03/20 10:22:06;;;;;;;31.63;28.87;;;24.60;34.90;;;;;;6186141;23;20406;-82
2022/03/20 10:24:34;;;;;;;31.53;28.57;;;25.10;35.30;;;;;;6187445;23;20438;-81
2022/03/20 10:27:09;;;;;;;30.77;27.87;;;24.50;35.10;;;;;;6189637;23;20440;-81
2022/03/20 10:29:46;;;;;;;29.33;26.63;;;23.80;37.10;;;;;;6189355;23;20391;-83
2022/03/20 10:32:13;;;;;;;30.13;27.33;;;22.70;37.10;;;;;;6193613;23;20391;-81
2022/03/20 10:34:54;;;;;;;28.97;26.33;;;21.80;38.10;;;;;;6203514;23;20411;-80
2022/03/20 10:37:42;;;;;;;28.73;26.03;;;21.60;39.20;;;;;;6197457;23;20494;-82
2022/03/20 10:40:10;;;;;;;28.87;26.10;;;21.20;40.20;;;;;;6195322;23;20407;-86
2022/03/20 10:42:38;;;;;;;26.83;24.03;;;20.50;40.70;;;;;;6193639;23;20419;-84
2022/03/20 10:45:06;;;;;;;25.87;23.17;;;20.00;41.50;;;;;;6193980;23;20468;-84
2022/03/20 10:47:33;;;;;;;22.27;20.13;;;19.80;42.40;;;;;;6191066;23;20437;-82
2022/03/20 10:50:05;;;;;;;21.03;18.83;;;18.80;43.80;;;;;;6188699;23;20390;-82
2022/03/20 10:52:35;;;;;;;23.50;21.00;;;18.40;45.80;;;;;;6187738;23;20394;-82
2022/03/20 10:55:07;;;;;;;30.97;20.83;;;17.70;47.30;;;;;;6187462;23;20400;-81
2022/03/20 10:57:35;;;;;;;21.23;19.10;;;17.50;48.10;;;;;;6186894;23;20430;-81
2022/03/20 11:00:07;;;;;;;22.53;19.63;;;17.40;48.50;;;;;;6196776;23;20390;-80
2022/03/20 11:02:37;;;;;;;24.60;20.03;;;17.60;49.10;;;;;;6188078;23;20401;-82
2022/03/20 11:05:04;;;;;;;22.00;18.30;;;17.60;48.10;;;;;;6191089;23;20441;-81
2022/03/20 11:07:31;;;;;;;23.70;19.97;;;17.60;48.30;;;;;;6188345;23;20424;-82
2022/03/20 11:09:57;;;;;;;21.47;19.37;;;17.80;48.60;;;;;;6188814;23;20399;-82
2022/03/20 11:12:27;;;;;;;21.43;19.23;;;18.00;48.00;;;;;;6188122;23;20924;-84
2022/03/20 11:14:58;;;;;;;27.00;19.60;;;19.20;47.40;;;;;;6190610;23;20398;-81
2022/03/20 11:17:28;;;;;;;21.57;18.40;;;18.80;46.40;;;;;;6189936;23;20436;-81
2022/03/20 11:19:57;;;;;;;21.07;18.87;;;18.80;47.40;;;;;;6194961;23;20414;-81
2022/03/20 11:22:25;;;;;;;25.07;19.37;;;19.20;47.40;;;;;;6202451;23;20413;-82
2022/03/20 11:24:55;;;;;;;22.00;19.70;;;19.50;46.80;;;;;;6195774;23;20426;-81
2022/03/20 11:27:24;;;;;;;20.87;18.87;;;19.60;45.60;;;;;;6192826;23;20426;-82
2022/03/20 11:29:56;;;;;;;20.37;18.13;;;20.00;45.60;;;;;;6189332;23;20413;-80
2022/03/20 11:32:23;;;;;;;20.87;18.73;;;20.40;45.10;;;;;;6188880;23;20408;-81
2022/03/20 11:34:53;;;;;;;21.27;19.17;;;20.80;44.90;;;;;;6202034;23;20939;-81
2022/03/20 11:37:20;;;;;;;23.33;19.70;;;21.70;43.70;;;;;;6206901;23;20427;-81
2022/03/20 11:40:10;;;;;;;19.40;17.50;;;24.10;41.90;;;;;;6194904;23;20410;-82
2022/03/20 11:42:38;;;;;;;21.63;19.43;;;27.00;38.40;;;;;;6190788;23;20879;-83
2022/03/20 11:45:17;;;;;;;22.60;20.30;;;27.10;36.10;;;;;;6188434;23;20446;-83
2022/03/20 11:47:46;;;;;;;20.63;18.87;;;27.60;34.90;;;;;;6187471;23;20434;-84
2022/03/20 11:50:20;;;;;;;23.90;19.47;;;26.10;35.60;;;;;;6187282;23;20987;-84
2022/03/20 11:52:50;;;;;;;18.97;17.27;;;24.10;37.00;;;;;;6187200;23;20425;-84
2022/03/20 11:55:30;;;;;;;21.03;18.40;;;25.00;38.20;;;;;;6185790;23;20984;-84
2022/03/20 11:57:57;;;;;;;21.17;19.07;;;26.80;36.50;;;;;;6185394;23;20484;-84
2022/03/20 12:00:26;;;;;;;17.93;16.33;;;27.90;34.60;;;;;;6195132;23;20438;-85
2022/03/20 12:03:10;;;;;;;20.60;18.53;;;28.60;33.90;;;;;;6193958;23;20736;-85
2022/03/20 12:05:57;;;;;;;17.97;16.27;;;29.60;32.80;;;;;;6169222;23;20446;-82
2022/03/20 12:08:41;;;;;;;19.47;17.50;;;31.70;30.20;;;;;;6187704;23;20777;-80
2022/03/20 12:11:23;;;;;;;19.20;17.07;;;32.10;28.80;;;;;;6185484;23;20386;-83
2022/03/20 12:13:57;;;;;;;17.83;15.90;;;33.60;28.20;;;;;;6190599;23;20374;-83
2022/03/20 12:16:58;;;;;;;19.33;17.53;;;32.90;27.50;;;;;;6186126;23;20432;-80
2022/03/20 12:19:37;;;;;;;19.00;17.33;;;31.70;28.00;;;;;;6186581;23;20747;-82
2022/03/20 12:22:07;;;;;;;18.80;16.60;;;31.10;28.20;;;;;;6185491;23;20474;-82
2022/03/20 12:24:51;;;;;;;19.90;18.03;;;29.00;29.10;;;;;;6186744;23;20437;-83
2022/03/20 12:27:44;;;;;;;18.03;16.60;;;29.10;30.00;;;;;;6186652;23;20431;-82
2022/03/20 12:30:30;;;;;;;18.13;16.37;;;30.00;29.90;;;;;;6187257;23;20489;-81
2022/03/20 12:32:58;;;;;;;18.67;16.80;;;29.10;29.10;;;;;;6195120;23;20418;-81
2022/03/20 12:35:25;;;;;;;17.70;15.87;;;28.40;30.40;;;;;;6200584;23;20408;-81
2022/03/20 12:37:56;;;;;;;17.13;15.63;;;28.30;30.80;;;;;;6199081;23;20461;-82
2022/03/20 12:40:26;;;;;;;16.47;14.90;;;28.70;30.00;;;;;;6197464;23;20391;-82
2022/03/20 12:42:58;;;;;;;19.57;17.20;;;28.90;29.50;;;;;;6188443;23;20632;-82
2022/03/20 12:45:26;;;;;;;18.67;16.90;;;27.80;30.30;;;;;;6186618;23;20812;-82
2022/03/20 12:47:55;;;;;;;17.70;16.00;;;26.90;31.50;;;;;;6186925;23;20430;-81
2022/03/20 12:50:24;;;;;;;16.73;15.13;;;26.30;32.50;;;;;;6184953;23;20442;-82
2022/03/20 12:53:02;;;;;;;21.43;16.53;;;27.00;31.80;;;;;;6185554;23;20405;-83
2022/03/20 12:55:31;;;;;;;15.00;13.60;;;27.50;31.00;;;;;;6185885;23;20393;-82
2022/03/20 12:58:02;;;;;;;18.50;16.60;;;27.60;31.10;;;;;;6184622;23;21065;-82
2022/03/20 13:00:32;;;;;;;16.93;15.27;;;28.40;30.50;;;;;;6188840;23;20866;-84
2022/03/20 13:03:03;;;;;;;17.87;16.00;;;28.00;30.20;;;;;;6186190;23;20416;-84
2022/03/20 13:05:31;;;;;;;16.27;14.67;;;27.20;31.30;;;;;;6185642;23;20473;-82
2022/03/20 13:07:59;;;;;;;22.57;20.47;;;28.00;30.80;;;;;;6184981;23;20430;-82
2022/03/20 13:10:33;;;;;;;22.23;20.03;;;27.50;30.70;;;;;;6187935;23;20453;-83
2022/03/20 13:13:02;;;;;;;22.07;19.77;;;26.70;32.50;;;;;;6191934;23;20390;-83
2022/03/20 13:15:30;;;;;;;22.20;20.00;;;27.00;32.00;;;;;;6200063;23;20402;-85